Time;durP1;ratioP1;P1;durP2;ratioP2;P2;SDS_P1;SDS_P2;PMS_P1;PMS_P2;Temp;Humidity;BMP_temperature;BMP_pressure;BME280_temperature;BME280_humidity;BME280_pressure;Samples;Min_cycle;Max_cycle;Signal;HPM_P1;HPM_P2
2021/11/12 00:02:47;;;;;;;;;;;;;;;;;;2132414;27;19967;-43
2021/11/12 00:04:04;;;;;;;;;;;;;;;;;;2122541;27;19957;-42
2021/11/12 00:11:55;;;;;;;;;;;;;;;;;;2115985;28;20053;-43
2021/11/12 00:13:05;;;;;;;;;;;;;;;;;;2130086;27;20014;-43
2021/11/12 00:14:07;;;;;;;;;;;;;;;;;;2132515;27;20109;-43
2021/11/12 00:15:10;;;;;;;;;;;;;;;;;;2124502;27;20010;-42
2021/11/12 00:16:11;;;;;;;;;;;;;;;;;;2115455;28;19924;-43
2021/11/12 00:17:12;;;;;;;;;;;;;;;;;;2115221;28;19924;-43
2021/11/12 00:18:13;;;;;;;;;;;;;;;;;;2118913;27;20017;-43
2021/11/12 00:19:14;;;;;;;;;;;;;;;;;;2123782;28;20396;-43
2021/11/12 00:20:15;;;;;;;;;;;;;;;;;;2123693;28;20033;-43
2021/11/12 00:21:16;;;;;;;;;;;;;;;;;;2120301;28;19934;-43
2021/11/12 00:22:17;;;;;;;;;;;;;;;;;;2119031;28;20326;-42
2021/11/12 00:23:18;;;;;;;;;;;;;;;;;;2123177;28;19924;-43
2021/11/12 00:24:19;;;;;;;;;;;;;;;;;;2121594;27;19938;-43
2021/11/12 00:25:19;;;;;;;;;;;;;;;;;;2123638;28;19928;-43
2021/11/12 00:26:21;;;;;;;;;;;;;;;;;;2123196;28;19931;-43
2021/11/12 00:27:22;;;;;;;;;;;;;;;;;;2121471;27;20423;-43
2021/11/12 00:28:24;;;;;;;;;;;;;;;;;;2123553;28;19923;-43
2021/11/12 00:29:29;;;;;;;;;;;;;;;;;;2122196;28;19923;-43
2021/11/12 00:30:38;;;;;;;;;;;;;;;;;;2127852;27;20285;-43
2021/11/12 00:31:45;;;;;;;;;;;;;;;;;;2132284;27;20005;-43
2021/11/12 00:32:53;;;;;;;;;;;;;;;;;;2128594;27;19927;-43
2021/11/12 00:34:23;;;;;;;;;;;;;;;;;;2123589;28;19945;-43
2021/11/12 00:35:29;;;;;;;;;;;;;;;;;;2122284;28;20017;-42
2021/11/12 00:36:38;;;;;;;;;;;;;;;;;;2120314;27;20392;-43
2021/11/12 00:37:51;;;;;;;;;;;;;;;;;;2115078;28;20018;-42
2021/11/12 00:38:55;;;;;;;;;;;;;;;;;;2120959;27;21671;-43
2021/11/12 00:39:59;;;;;;;;;;;;;;;;;;2131966;27;19931;-43
2021/11/12 00:41:11;;;;;;;;;;;;;;;;;;2132180;27;19969;-43
2021/11/12 00:42:15;;;;;;;;;;;;;;;;;;2117691;27;20014;-43
2021/11/12 00:43:30;;;;;;;;;;;;;;;;;;2115056;28;20022;-43
2021/11/12 00:44:33;;;;;;;;;;;;;;;;;;2122319;27;20328;-42
2021/11/12 00:45:42;;;;;;;;;;;;;;;;;;2115233;28;20410;-43
2021/11/12 00:46:48;;;;;;;;;;;;;;;;;;2114946;28;20422;-43
2021/11/12 00:47:53;;;;;;;;;;;;;;;;;;2120881;27;20017;-43
2021/11/12 00:48:56;;;;;;;;;;;;;;;;;;2123382;28;19923;-43
2021/11/12 00:50:10;;;;;;;;;;;;;;;;;;2122287;28;20370;-43
2021/11/12 00:51:14;;;;;;;;;;;;;;;;;;2129218;27;20010;-43
2021/11/12 00:52:27;;;;;;;;;;;;;;;;;;2131964;27;20405;-43
2021/11/12 00:54:50;;;;;;;;;;;;;;;;;;2109633;28;19930;-43
2021/11/12 00:55:51;;;;;;;;;;;;;;;;;;2115812;28;19923;-42
2021/11/12 00:56:52;;;;;;;;;;;;;;;;;;2117824;27;20022;-43
2021/11/12 00:57:53;;;;;;;;;;;;;;;;;;2114921;28;19923;-43
2021/11/12 00:58:54;;;;;;;;;;;;;;;;;;2117497;28;20014;-42
2021/11/12 00:59:55;;;;;;;;;;;;;;;;;;2115971;28;19923;-42
2021/11/12 01:00:56;;;;;;;;;;;;;;;;;;2115006;28;19934;-43
2021/11/12 01:01:58;;;;;;;;;;;;;;;;;;2118659;27;19938;-42
2021/11/12 01:02:59;;;;;;;;;;;;;;;;;;2121574;28;19931;-43
2021/11/12 01:04:00;;;;;;;;;;;;;;;;;;2123523;28;20022;-43
2021/11/12 01:05:01;;;;;;;;;;;;;;;;;;2120877;27;19946;-42
2021/11/12 01:06:02;;;;;;;;;;;;;;;;;;2123292;28;19934;-42
2021/11/12 01:07:03;;;;;;;;;;;;;;;;;;2123298;28;19923;-43
2021/11/12 01:08:03;;;;;;;;;;;;;;;;;;2120981;27;20447;-43
2021/11/12 01:09:04;;;;;;;;;;;;;;;;;;2123191;28;20014;-43
2021/11/12 01:10:06;;;;;;;;;;;;;;;;;;2123305;27;20014;-43
2021/11/12 01:11:07;;;;;;;;;;;;;;;;;;2119678;28;19932;-43
2021/11/12 01:12:07;;;;;;;;;;;;;;;;;;2123271;28;19923;-43
2021/11/12 01:13:08;;;;;;;;;;;;;;;;;;2123314;28;19978;-42
2021/11/12 01:14:09;;;;;;;;;;;;;;;;;;2123093;27;19923;-42
2021/11/12 01:15:10;;;;;;;;;;;;;;;;;;2131892;27;19923;-43
2021/11/12 01:16:11;;;;;;;;;;;;;;;;;;2130912;27;19923;-43
2021/11/12 01:17:12;;;;;;;;;;;;;;;;;;2122701;27;20044;-43
2021/11/12 01:18:13;;;;;;;;;;;;;;;;;;2116180;28;19980;-43
2021/11/12 01:19:14;;;;;;;;;;;;;;;;;;2122844;28;19934;-43
2021/11/12 01:20:15;;;;;;;;;;;;;;;;;;2120140;28;20329;-42
2021/11/12 01:21:16;;;;;;;;;;;;;;;;;;2123453;28;20285;-42
2021/11/12 01:22:16;;;;;;;;;;;;;;;;;;2120950;28;20077;-42
2021/11/12 01:23:18;;;;;;;;;;;;;;;;;;2125175;27;19929;-42
2021/11/12 01:24:19;;;;;;;;;;;;;;;;;;2131862;27;20165;-41
2021/11/12 01:25:20;;;;;;;;;;;;;;;;;;2127549;27;19923;-42
2021/11/12 01:26:20;;;;;;;;;;;;;;;;;;2125833;27;19927;-42
2021/11/12 01:27:21;;;;;;;;;;;;;;;;;;2131862;27;19965;-41
2021/11/12 01:28:22;;;;;;;;;;;;;;;;;;2127208;27;20388;-41
2021/11/12 01:29:23;;;;;;;;;;;;;;;;;;2123217;27;19974;-41
2021/11/12 01:30:24;;;;;;;;;;;;;;;;;;2123446;28;19930;-42
2021/11/12 01:31:28;;;;;;;;;;;;;;;;;;2120992;28;19931;-41
2021/11/12 01:32:30;;;;;;;;;;;;;;;;;;2129809;27;19929;-41
2021/11/12 01:33:32;;;;;;;;;;;;;;;;;;2131949;27;20021;-42
2021/11/12 01:34:35;;;;;;;;;;;;;;;;;;2126899;27;20014;-42
2021/11/12 01:35:36;;;;;;;;;;;;;;;;;;2116683;27;19931;-42
2021/11/12 01:36:38;;;;;;;;;;;;;;;;;;2114602;28;20011;-41
2021/11/12 01:37:40;;;;;;;;;;;;;;;;;;2118664;28;20010;-44
2021/11/12 01:38:41;;;;;;;;;;;;;;;;;;2115198;28;20014;-43
2021/11/12 01:39:42;;;;;;;;;;;;;;;;;;2114950;28;19924;-47
2021/11/12 01:40:44;;;;;;;;;;;;;;;;;;2120523;27;19973;-49
2021/11/12 01:41:47;;;;;;;;;;;;;;;;;;2131584;27;20010;-47
2021/11/12 01:42:48;;;;;;;;;;;;;;;;;;2131773;27;19990;-47
2021/11/12 01:43:49;;;;;;;;;;;;;;;;;;2122074;27;19930;-46
2021/11/12 01:44:53;;;;;;;;;;;;;;;;;;2123311;28;20198;-47
2021/11/12 01:46:04;;;;;;;;;;;;;;;;;;2122793;28;20014;-47
2021/11/12 01:47:14;;;;;;;;;;;;;;;;;;2122029;27;19930;-47
2021/11/12 01:48:24;;;;;;;;;;;;;;;;;;2123243;28;20022;-48
2021/11/12 01:49:28;;;;;;;;;;;;;;;;;;2123652;27;20059;-47
2021/11/12 01:50:29;;;;;;;;;;;;;;;;;;2121864;28;20026;-49
2021/11/12 01:51:38;;;;;;;;;;;;;;;;;;2123097;28;19931;-48
2021/11/12 01:52:42;;;;;;;;;;;;;;;;;;2120166;28;20372;-47
2021/11/12 01:53:49;;;;;;;;;;;;;;;;;;2114609;28;20022;-47
2021/11/12 01:54:56;;;;;;;;;;;;;;;;;;2115271;28;20018;-46
2021/11/12 01:56:21;;;;;;;;;;;;;;;;;;2122083;27;20010;-47
2021/11/12 01:57:32;;;;;;;;;;;;;;;;;;2114743;28;19965;-47
2021/11/12 01:58:39;;;;;;;;;;;;;;;;;;2119268;28;20022;-48
2021/11/12 01:59:40;;;;;;;;;;;;;;;;;;2114495;28;20368;-47
2021/11/12 02:00:42;;;;;;;;;;;;;;;;;;2114440;28;20389;-46
2021/11/12 02:01:44;;;;;;;;;;;;;;;;;;2121037;27;19924;-47
2021/11/12 02:02:45;;;;;;;;;;;;;;;;;;2123135;28;19929;-46
2021/11/12 02:03:46;;;;;;;;;;;;;;;;;;2113812;28;19951;-47
2021/11/12 02:04:47;;;;;;;;;;;;;;;;;;2125047;27;20066;-46
2021/11/12 02:05:48;;;;;;;;;;;;;;;;;;2131666;27;19972;-46
2021/11/12 02:06:49;;;;;;;;;;;;;;;;;;2128427;27;20022;-46
2021/11/12 02:07:51;;;;;;;;;;;;;;;;;;2121861;27;19924;-46
2021/11/12 02:08:53;;;;;;;;;;;;;;;;;;2122986;28;20520;-47
2021/11/12 02:09:54;;;;;;;;;;;;;;;;;;2121493;27;19984;-47
2021/11/12 02:10:55;;;;;;;;;;;;;;;;;;2122113;27;19984;-47
2021/11/12 02:11:56;;;;;;;;;;;;;;;;;;2122886;28;19934;-46
2021/11/12 02:13:02;;;;;;;;;;;;;;;;;;2122141;27;20017;-47
2021/11/12 02:14:04;;;;;;;;;;;;;;;;;;2118147;27;20022;-46
2021/11/12 02:15:05;;;;;;;;;;;;;;;;;;2121169;28;20424;-46
2021/11/12 02:16:07;;;;;;;;;;;;;;;;;;2122461;27;19951;-48
2021/11/12 02:17:10;;;;;;;;;;;;;;;;;;2122199;28;19931;-46
2021/11/12 02:18:14;;;;;;;;;;;;;;;;;;2123131;28;20018;-48
2021/11/12 02:19:15;;;;;;;;;;;;;;;;;;2121457;27;20034;-48
2021/11/12 02:20:19;;;;;;;;;;;;;;;;;;2131534;27;20325;-46
2021/11/12 02:21:26;;;;;;;;;;;;;;;;;;2131567;27;20059;-47
2021/11/12 02:22:28;;;;;;;;;;;;;;;;;;2120612;27;20605;-47
2021/11/12 02:23:33;;;;;;;;;;;;;;;;;;2124410;28;20021;-46
2021/11/12 02:24:36;;;;;;;;;;;;;;;;;;2123812;28;20010;-47
2021/11/12 02:25:40;;;;;;;;;;;;;;;;;;2122089;28;20048;-47
2021/11/12 02:26:42;;;;;;;;;;;;;;;;;;2124609;28;20006;-47
2021/11/12 02:27:49;;;;;;;;;;;;;;;;;;2122867;27;19933;-46
2021/11/12 02:28:53;;;;;;;;;;;;;;;;;;2130797;27;20022;-47
2021/11/12 02:29:55;;;;;;;;;;;;;;;;;;2132943;27;20409;-47
2021/11/12 02:30:56;;;;;;;;;;;;;;;;;;2126034;27;19934;-50
2021/11/12 02:31:57;;;;;;;;;;;;;;;;;;2123546;28;20275;-48
2021/11/12 02:32:58;;;;;;;;;;;;;;;;;;2124371;28;19927;-46
2021/11/12 02:33:59;;;;;;;;;;;;;;;;;;2122164;28;20317;-47
2021/11/12 02:34:59;;;;;;;;;;;;;;;;;;2123197;28;19927;-47
2021/11/12 02:36:00;;;;;;;;;;;;;;;;;;2124412;28;19972;-47
2021/11/12 02:37:01;;;;;;;;;;;;;;;;;;2123688;27;19974;-46
2021/11/12 02:38:03;;;;;;;;;;;;;;;;;;2116242;28;19928;-46
2021/11/12 02:39:04;;;;;;;;;;;;;;;;;;2115847;28;19972;-47
2021/11/12 02:40:08;;;;;;;;;;;;;;;;;;2121057;27;20003;-48
2021/11/12 02:41:09;;;;;;;;;;;;;;;;;;2124447;28;19923;-47
2021/11/12 02:42:10;;;;;;;;;;;;;;;;;;2124317;28;19966;-46
2021/11/12 02:43:10;;;;;;;;;;;;;;;;;;2121864;27;19930;-46
2021/11/12 02:44:12;;;;;;;;;;;;;;;;;;2124298;28;20268;-46
2021/11/12 02:45:13;;;;;;;;;;;;;;;;;;2123974;28;20010;-47
2021/11/12 02:46:14;;;;;;;;;;;;;;;;;;2122211;27;19950;-46
2021/11/12 02:47:16;;;;;;;;;;;;;;;;;;2124201;28;20014;-46
2021/11/12 02:48:17;;;;;;;;;;;;;;;;;;2123581;28;20252;-47
2021/11/12 02:49:18;;;;;;;;;;;;;;;;;;2122528;27;19927;-46
2021/11/12 02:50:19;;;;;;;;;;;;;;;;;;2124357;28;19980;-47
2021/11/12 02:51:21;;;;;;;;;;;;;;;;;;2123699;28;19924;-46
2021/11/12 02:52:22;;;;;;;;;;;;;;;;;;2123322;27;20376;-46
2021/11/12 02:53:23;;;;;;;;;;;;;;;;;;2124197;28;19931;-46
2021/11/12 02:54:25;;;;;;;;;;;;;;;;;;2122683;27;20410;-47
2021/11/12 02:55:26;;;;;;;;;;;;;;;;;;2126265;27;19939;-47
2021/11/12 02:56:28;;;;;;;;;;;;;;;;;;2124381;28;20030;-48
2021/11/12 02:57:33;;;;;;;;;;;;;;;;;;2121969;28;20018;-46
2021/11/12 02:58:37;;;;;;;;;;;;;;;;;;2117916;28;20006;-46
2021/11/12 02:59:38;;;;;;;;;;;;;;;;;;2115739;28;20010;-46
2021/11/12 03:00:40;;;;;;;;;;;;;;;;;;2121038;27;19930;-47
2021/11/12 03:01:43;;;;;;;;;;;;;;;;;;2124128;28;19946;-46
2021/11/12 03:02:44;;;;;;;;;;;;;;;;;;2124181;28;19962;-46
2021/11/12 03:03:45;;;;;;;;;;;;;;;;;;2118096;27;19924;-47
2021/11/12 03:04:46;;;;;;;;;;;;;;;;;;2115799;28;20022;-48
2021/11/12 03:05:47;;;;;;;;;;;;;;;;;;2116409;28;19924;-47
2021/11/12 03:06:48;;;;;;;;;;;;;;;;;;2122724;27;19930;-47
2021/11/12 03:07:48;;;;;;;;;;;;;;;;;;2115741;28;19972;-48
2021/11/12 03:08:49;;;;;;;;;;;;;;;;;;2116361;28;20407;-47
2021/11/12 03:09:50;;;;;;;;;;;;;;;;;;2122759;27;19923;-49
2021/11/12 03:10:55;;;;;;;;;;;;;;;;;;2118160;28;19963;-47
2021/11/12 03:11:56;;;;;;;;;;;;;;;;;;2122545;27;20018;-46
2021/11/12 03:12:58;;;;;;;;;;;;;;;;;;2122086;27;20288;-46
2021/11/12 03:13:58;;;;;;;;;;;;;;;;;;2115693;28;20019;-49
2021/11/12 03:15:00;;;;;;;;;;;;;;;;;;2118331;27;19950;-47
2021/11/12 03:16:01;;;;;;;;;;;;;;;;;;2122204;28;20452;-42
2021/11/12 03:17:02;;;;;;;;;;;;;;;;;;2124244;28;19927;-42
2021/11/12 03:18:03;;;;;;;;;;;;;;;;;;2124069;27;19982;-42
2021/11/12 03:19:04;;;;;;;;;;;;;;;;;;2123827;28;19924;-42
2021/11/12 03:20:05;;;;;;;;;;;;;;;;;;2124134;28;20299;-42
2021/11/12 03:21:07;;;;;;;;;;;;;;;;;;2122626;27;20388;-42
2021/11/12 03:22:10;;;;;;;;;;;;;;;;;;2123432;28;19969;-42
2021/11/12 03:23:15;;;;;;;;;;;;;;;;;;2124229;28;20010;-42
2021/11/12 03:24:20;;;;;;;;;;;;;;;;;;2124983;27;20291;-42
2021/11/12 03:25:28;;;;;;;;;;;;;;;;;;2115509;28;19984;-42
2021/11/12 03:26:36;;;;;;;;;;;;;;;;;;2115721;28;20019;-41
2021/11/12 03:27:41;;;;;;;;;;;;;;;;;;2121461;27;19924;-42
2021/11/12 03:29:04;;;;;;;;;;;;;;;;;;2124004;28;20014;-42
2021/11/12 03:56:26;;;;;;;;;;;;;;;;;;2121479;28;20022;-42
2021/11/12 03:59:56;;;;;;;;;;;;;;;;;;2120113;27;20056;-43
2021/11/12 04:01:31;;;;;;;;;;;;;;;;;;2115376;28;20771;-43
2021/11/12 04:02:27;;;;;;;;;;;;;;;;;;2116065;28;19930;-42
2021/11/12 04:03:37;;;;;;;;;;;;;;;;;;2126305;27;19927;-42
2021/11/12 04:04:49;;;;;;;;;;;;;;;;;;2132350;27;20291;-42
2021/11/12 04:06:19;;;;;;;;;;;;;;;;;;2122799;27;19970;-42
2021/11/12 04:07:33;;;;;;;;;;;;;;;;;;2123529;28;20038;-43
2021/11/12 04:18:11;;;;;;;;;;;;;;;;;;2125043;27;20064;-43
2021/11/12 04:19:42;;;;;;;;;;;;;;;;;;2123752;28;20375;-42
2021/11/12 05:11:59;;;;;;;;;;;;;;;;;;2115835;28;20006;-43
2021/11/12 05:43:47;;;;;;;;;;;;;;;;;;2121971;27;20273;-47
2021/11/12 05:45:07;;;;;;;;;;;;;;;;;;2114813;28;20436;-47
2021/11/12 05:46:15;;;;;;;;;;;;;;;;;;2117284;28;20431;-47
2021/11/12 05:50:11;;;;;;;;;;;;;;;;;;2079792;28;20067;-48
2021/11/12 05:51:26;;;;;;;;;;;;;;;;;;2113845;28;20438;-47
2021/11/12 05:55:07;;;;;;;;;;;;;;;;;;2122056;27;20434;-48
2021/11/12 05:56:08;;;;;;;;;;;;;;;;;;2122265;28;20367;-46
2021/11/12 05:57:08;;;;;;;;;;;;;;;;;;2123483;27;19924;-47
2021/11/12 05:58:09;;;;;;;;;;;;;;;;;;2122479;27;19940;-47
2021/11/12 05:59:10;;;;;;;;;;;;;;;;;;2130955;27;19923;-48
2021/11/12 06:00:11;;;;;;;;;;;;;;;;;;2124942;27;19962;-48
2021/11/12 06:01:12;;;;;;;;;;;;;;;;;;2122156;27;19932;-48
2021/11/12 06:02:13;;;;;;;;;;;;;;;;;;2124389;28;19923;-47
2021/11/12 06:03:14;;;;;;;;;;;;;;;;;;2123170;28;20445;-47
2021/11/12 06:04:16;;;;;;;;;;;;;;;;;;2122060;27;20480;-47
2021/11/12 06:05:17;;;;;;;;;;;;;;;;;;2124662;28;19934;-47
2021/11/12 06:06:18;;;;;;;;;;;;;;;;;;2124545;28;19944;-49
2021/11/12 06:07:19;;;;;;;;;;;;;;;;;;2121967;27;19924;-50
2021/11/12 06:08:20;;;;;;;;;;;;;;;;;;2124632;28;19924;-48
2021/11/12 06:09:21;;;;;;;;;;;;;;;;;;2124045;28;19938;-48
2021/11/12 06:10:22;;;;;;;;;;;;;;;;;;2124337;27;20069;-50
2021/11/12 06:11:23;;;;;;;;;;;;;;;;;;2116215;28;19958;-47
2021/11/12 06:12:26;;;;;;;;;;;;;;;;;;2116476;28;20011;-48
2021/11/12 06:13:31;;;;;;;;;;;;;;;;;;2123048;27;19924;-47
2021/11/12 06:14:32;;;;;;;;;;;;;;;;;;2124529;28;20404;-47
2021/11/12 06:15:32;;;;;;;;;;;;;;;;;;2122887;28;19923;-46
2021/11/12 06:16:33;;;;;;;;;;;;;;;;;;2123740;27;20314;-46
2021/11/12 06:17:34;;;;;;;;;;;;;;;;;;2124468;28;19923;-47
2021/11/12 06:18:35;;;;;;;;;;;;;;;;;;2122912;27;19923;-47
2021/11/12 06:19:36;;;;;;;;;;;;;;;;;;2123531;27;19923;-46
2021/11/12 06:20:37;;;;;;;;;;;;;;;;;;2124626;28;19923;-46
2021/11/12 06:21:38;;;;;;;;;;;;;;;;;;2122420;28;20352;-47
2021/11/12 06:22:39;;;;;;;;;;;;;;;;;;2123104;28;19968;-47
2021/11/12 06:23:40;;;;;;;;;;;;;;;;;;2124611;28;19923;-47
2021/11/12 06:24:41;;;;;;;;;;;;;;;;;;2124145;27;20006;-48
2021/11/12 06:25:42;;;;;;;;;;;;;;;;;;2118778;27;19973;-47
2021/11/12 06:26:43;;;;;;;;;;;;;;;;;;2115980;28;19927;-47
2021/11/12 06:27:44;;;;;;;;;;;;;;;;;;2119549;27;19924;-47
2021/11/12 06:28:45;;;;;;;;;;;;;;;;;;2123415;28;19923;-48
2021/11/12 06:29:46;;;;;;;;;;;;;;;;;;2124563;28;20030;-46
2021/11/12 06:30:48;;;;;;;;;;;;;;;;;;2122238;28;19923;-48
2021/11/12 06:31:49;;;;;;;;;;;;;;;;;;2123368;28;19930;-46
2021/11/12 06:32:50;;;;;;;;;;;;;;;;;;2124406;28;19931;-49
2021/11/12 06:33:51;;;;;;;;;;;;;;;;;;2121985;27;19930;-47
2021/11/12 06:34:52;;;;;;;;;;;;;;;;;;2124577;28;19923;-43
2021/11/12 06:35:52;;;;;;;;;;;;;;;;;;2124448;28;19923;-43
2021/11/12 06:36:53;;;;;;;;;;;;;;;;;;2125011;27;19930;-43
2021/11/12 06:37:54;;;;;;;;;;;;;;;;;;2115853;28;20458;-43
2021/11/12 06:38:55;;;;;;;;;;;;;;;;;;2115954;28;19924;-43
2021/11/12 06:39:56;;;;;;;;;;;;;;;;;;2122755;27;20384;-42
2021/11/12 06:40:59;;;;;;;;;;;;;;;;;;2115823;28;20023;-43
2021/11/12 06:42:02;;;;;;;;;;;;;;;;;;2115403;28;20447;-43
2021/11/12 06:43:06;;;;;;;;;;;;;;;;;;2122340;27;20332;-43
2021/11/12 06:44:26;;;;;;;;;;;;;;;;;;2124312;28;19967;-43
2021/11/12 06:49:30;;;;;;;;;;;;;;;;;;2122924;28;20375;-43
2021/11/12 06:50:31;;;;;;;;;;;;;;;;;;2124416;28;20010;-43
2021/11/12 06:51:33;;;;;;;;;;;;;;;;;;2122261;27;19926;-43
2021/11/12 06:52:36;;;;;;;;;;;;;;;;;;2122941;28;20391;-43
2021/11/12 06:53:37;;;;;;;;;;;;;;;;;;2124201;28;19971;-43
2021/11/12 06:54:38;;;;;;;;;;;;;;;;;;2123771;27;19949;-43
2021/11/12 06:55:39;;;;;;;;;;;;;;;;;;2116569;28;20010;-43
2021/11/12 06:56:40;;;;;;;;;;;;;;;;;;2124511;28;19927;-48
2021/11/12 06:57:41;;;;;;;;;;;;;;;;;;2124607;27;20010;-48
2021/11/12 06:58:42;;;;;;;;;;;;;;;;;;2115902;28;19924;-43
2021/11/12 06:59:43;;;;;;;;;;;;;;;;;;2115840;28;19924;-43
2021/11/12 07:00:46;;;;;;;;;;;;;;;;;;2123628;27;19961;-43
2021/11/12 07:01:47;;;;;;;;;;;;;;;;;;2115664;28;19927;-43
2021/11/12 07:02:48;;;;;;;;;;;;;;;;;;2114025;28;19955;-43
2021/11/12 07:03:50;;;;;;;;;;;;;;;;;;2122608;27;19954;-43
2021/11/12 07:04:50;;;;;;;;;;;;;;;;;;2115618;28;20359;-43
2021/11/12 07:05:51;;;;;;;;;;;;;;;;;;2116647;28;19925;-43
2021/11/12 07:06:52;;;;;;;;;;;;;;;;;;2122867;27;19939;-43
2021/11/12 07:07:53;;;;;;;;;;;;;;;;;;2115468;28;19923;-43
2021/11/12 07:08:54;;;;;;;;;;;;;;;;;;2116434;28;20015;-43
2021/11/12 07:09:55;;;;;;;;;;;;;;;;;;2122905;27;20026;-43
2021/11/12 07:10:57;;;;;;;;;;;;;;;;;;2115626;28;19924;-43
2021/11/12 07:11:58;;;;;;;;;;;;;;;;;;2116599;27;20006;-43
2021/11/12 07:12:59;;;;;;;;;;;;;;;;;;2122346;27;19943;-43
2021/11/12 07:13:59;;;;;;;;;;;;;;;;;;2115569;28;19930;-43
2021/11/12 07:15:00;;;;;;;;;;;;;;;;;;2117353;28;19980;-43
2021/11/12 07:16:01;;;;;;;;;;;;;;;;;;2129695;27;20411;-43
2021/11/12 07:17:02;;;;;;;;;;;;;;;;;;2132734;27;20010;-43
2021/11/12 07:18:03;;;;;;;;;;;;;;;;;;2126450;27;19924;-43
2021/11/12 07:19:04;;;;;;;;;;;;;;;;;;2130621;27;20459;-43
2021/11/12 07:20:05;;;;;;;;;;;;;;;;;;2132740;27;19930;-43
2021/11/12 07:21:06;;;;;;;;;;;;;;;;;;2127811;27;20307;-43
2021/11/12 07:22:27;;;;;;;;;;;;;;;;;;2115469;28;19923;-43
2021/11/12 07:23:28;;;;;;;;;;;;;;;;;;2115538;28;19924;-43
2021/11/12 07:24:30;;;;;;;;;;;;;;;;;;2121401;27;19966;-43
2021/11/12 07:25:31;;;;;;;;;;;;;;;;;;2124035;28;20002;-43
2021/11/12 07:26:32;;;;;;;;;;;;;;;;;;2123547;28;19984;-43
2021/11/12 07:27:33;;;;;;;;;;;;;;;;;;2125193;27;20025;-43
2021/11/12 07:28:43;;;;;;;;;;;;;;;;;;2132631;27;19930;-43
2021/11/12 07:29:52;;;;;;;;;;;;;;;;;;2126653;27;19923;-44
2021/11/12 07:30:53;;;;;;;;;;;;;;;;;;2118440;28;19930;-43
2021/11/12 07:31:55;;;;;;;;;;;;;;;;;;2115569;28;20288;-43
2021/11/12 07:32:57;;;;;;;;;;;;;;;;;;2119202;27;19928;-43
2021/11/12 07:33:59;;;;;;;;;;;;;;;;;;2130146;27;20013;-48
2021/11/12 07:35:00;;;;;;;;;;;;;;;;;;2132482;27;19992;-48
2021/11/12 07:36:06;;;;;;;;;;;;;;;;;;2124962;27;20030;-50
2021/11/12 07:37:10;;;;;;;;;;;;;;;;;;2123303;28;19958;-48
2021/11/12 07:38:13;;;;;;;;;;;;;;;;;;2123966;28;20064;-48
2021/11/12 07:39:19;;;;;;;;;;;;;;;;;;2124340;27;20352;-47
2021/11/12 07:40:24;;;;;;;;;;;;;;;;;;2132612;27;19930;-48
2021/11/12 07:41:30;;;;;;;;;;;;;;;;;;2130994;27;20385;-49
2021/11/12 07:42:38;;;;;;;;;;;;;;;;;;2125843;27;20022;-49
2021/11/12 07:45:08;;;;;;;;;;;;;;;;;;2124079;27;20386;-52
2021/11/12 07:46:15;;;;;;;;;;;;;;;;;;2115377;28;20019;-48
2021/11/12 07:47:17;;;;;;;;;;;;;;;;;;2115114;28;20443;-49
2021/11/12 07:48:17;;;;;;;;;;;;;;;;;;2122051;27;19977;-49
2021/11/12 07:49:18;;;;;;;;;;;;;;;;;;2123976;28;19923;-49
2021/11/12 07:50:19;;;;;;;;;;;;;;;;;;2123416;28;19927;-50
2021/11/12 07:51:20;;;;;;;;;;;;;;;;;;2119392;28;19923;-49
2021/11/12 07:52:21;;;;;;;;;;;;;;;;;;2119878;28;19968;-48
2021/11/12 07:53:22;;;;;;;;;;;;;;;;;;2123145;28;19923;-48
2021/11/12 07:54:23;;;;;;;;;;;;;;;;;;2122395;27;20341;-49
2021/11/12 07:55:25;;;;;;;;;;;;;;;;;;2124011;28;19923;-48
2021/11/12 07:56:26;;;;;;;;;;;;;;;;;;2122083;28;20537;-49
2021/11/12 07:57:27;;;;;;;;;;;;;;;;;;2127606;27;19943;-49
2021/11/12 07:58:28;;;;;;;;;;;;;;;;;;2132343;27;20351;-48
2021/11/12 07:59:33;;;;;;;;;;;;;;;;;;2127563;27;19923;-50
2021/11/12 08:00:35;;;;;;;;;;;;;;;;;;2122459;28;20002;-49
2021/11/12 08:01:36;;;;;;;;;;;;;;;;;;2123805;28;19927;-48
2021/11/12 08:02:37;;;;;;;;;;;;;;;;;;2123343;27;19967;-47
2021/11/12 08:03:38;;;;;;;;;;;;;;;;;;2122202;27;20302;-48
2021/11/12 08:04:39;;;;;;;;;;;;;;;;;;2123932;28;19924;-51
2021/11/12 08:05:41;;;;;;;;;;;;;;;;;;2124163;27;19931;-50
2021/11/12 08:06:42;;;;;;;;;;;;;;;;;;2116811;27;19924;-48
2021/11/12 08:07:44;;;;;;;;;;;;;;;;;;2115169;28;19931;-49
2021/11/12 08:08:51;;;;;;;;;;;;;;;;;;2122447;27;20002;-48
2021/11/12 08:09:54;;;;;;;;;;;;;;;;;;2115403;28;20212;-49
2021/11/12 08:10:57;;;;;;;;;;;;;;;;;;2115449;28;19930;-49
2021/11/12 08:12:02;;;;;;;;;;;;;;;;;;2122174;27;20436;-49
2021/11/12 08:13:08;;;;;;;;;;;;;;;;;;2115399;28;20077;-44
2021/11/12 08:14:11;;;;;;;;;;;;;;;;;;2116057;28;19923;-44
2021/11/12 08:15:29;;;;;;;;;;;;;;;;;;2127687;27;20009;-44
2021/11/12 08:16:43;;;;;;;;;;;;;;;;;;2132378;27;19923;-45
2021/11/12 08:17:49;;;;;;;;;;;;;;;;;;2122859;27;19931;-44
2021/11/12 08:18:54;;;;;;;;;;;;;;;;;;2115342;28;19998;-44
2021/11/12 08:19:59;;;;;;;;;;;;;;;;;;2114473;28;19924;-44
2021/11/12 08:21:03;;;;;;;;;;;;;;;;;;2121613;27;19930;-44
2021/11/12 08:22:19;;;;;;;;;;;;;;;;;;2123719;28;19927;-44
2021/11/12 08:23:24;;;;;;;;;;;;;;;;;;2122611;27;20378;-44
2021/11/12 08:24:38;;;;;;;;;;;;;;;;;;2122314;28;20396;-44
2021/11/12 08:25:43;;;;;;;;;;;;;;;;;;2123778;28;19924;-43
2021/11/12 08:27:01;;;;;;;;;;;;;;;;;;2122157;27;19970;-44
2021/11/12 08:33:11;;;;;;;;;;;;;;;;;;2106668;28;19924;-44
2021/11/12 08:34:37;;;;;;;;;;;;;;;;;;2115233;28;19927;-45
2021/11/12 08:35:56;;;;;;;;;;;;;;;;;;2123122;27;19959;-45
2021/11/12 08:37:03;;;;;;;;;;;;;;;;;;2115195;28;20014;-44
2021/11/12 08:38:13;;;;;;;;;;;;;;;;;;2117196;27;20325;-44
2021/11/12 08:39:25;;;;;;;;;;;;;;;;;;2122341;28;20021;-44
2021/11/12 08:40:39;;;;;;;;;;;;;;;;;;2123763;28;19923;-44
2021/11/12 08:41:43;;;;;;;;;;;;;;;;;;2124409;27;20033;-44
2021/11/12 08:42:47;;;;;;;;;;;;;;;;;;2132002;27;20022;-44
2021/11/12 08:43:53;;;;;;;;;;;;;;;;;;2129563;27;19923;-45
2021/11/12 08:44:57;;;;;;;;;;;;;;;;;;2122300;27;20010;-44
2021/11/12 08:46:09;;;;;;;;;;;;;;;;;;2115064;28;20069;-44
2021/11/12 08:47:13;;;;;;;;;;;;;;;;;;2118826;27;19931;-45
2021/11/12 08:48:17;;;;;;;;;;;;;;;;;;2122755;28;19969;-44
2021/11/12 08:49:22;;;;;;;;;;;;;;;;;;2123465;28;19929;-44
2021/11/12 08:50:24;;;;;;;;;;;;;;;;;;2121052;27;20010;-44
2021/11/12 08:51:26;;;;;;;;;;;;;;;;;;2123636;28;19962;-44
2021/11/12 08:52:27;;;;;;;;;;;;;;;;;;2123468;28;19966;-44
2021/11/12 08:53:28;;;;;;;;;;;;;;;;;;2122268;27;19979;-44
2021/11/12 08:54:31;;;;;;;;;;;;;;;;;;2115103;28;19931;-44
2021/11/12 08:55:33;;;;;;;;;;;;;;;;;;2114991;28;20381;-44
2021/11/12 08:56:34;;;;;;;;;;;;;;;;;;2122310;27;20296;-44
2021/11/12 08:57:35;;;;;;;;;;;;;;;;;;2114861;28;19931;-45
2021/11/12 08:58:36;;;;;;;;;;;;;;;;;;2115995;28;19924;-44
2021/11/12 08:59:39;;;;;;;;;;;;;;;;;;2125096;27;19967;-44
2021/11/12 09:00:40;;;;;;;;;;;;;;;;;;2123421;28;19923;-43
2021/11/12 09:01:41;;;;;;;;;;;;;;;;;;2121919;28;19923;-44
2021/11/12 09:02:42;;;;;;;;;;;;;;;;;;2126516;27;19923;-44
2021/11/12 09:03:43;;;;;;;;;;;;;;;;;;2114481;27;19924;-44
2021/11/12 09:04:44;;;;;;;;;;;;;;;;;;2116651;27;20010;-45
2021/11/12 09:05:45;;;;;;;;;;;;;;;;;;2120894;27;20032;-44
2021/11/12 09:06:46;;;;;;;;;;;;;;;;;;2114726;28;19928;-44
2021/11/12 09:07:47;;;;;;;;;;;;;;;;;;2117800;27;19927;-45
2021/11/12 09:08:48;;;;;;;;;;;;;;;;;;2122785;28;20017;-44
2021/11/12 09:09:51;;;;;;;;;;;;;;;;;;2123524;28;19923;-44
2021/11/12 09:10:51;;;;;;;;;;;;;;;;;;2122344;27;19924;-44
2021/11/12 09:11:53;;;;;;;;;;;;;;;;;;2129224;27;19923;-45
2021/11/12 09:12:57;;;;;;;;;;;;;;;;;;2131747;27;19968;-44
2021/11/12 09:14:00;;;;;;;;;;;;;;;;;;2122583;27;20009;-44
2021/11/12 09:15:10;;;;;;;;;;;;;;;;;;2122431;28;20017;-44
2021/11/12 09:16:13;;;;;;;;;;;;;;;;;;2123367;28;20018;-44
2021/11/12 09:17:15;;;;;;;;;;;;;;;;;;2122756;27;19924;-45
2021/11/12 09:18:18;;;;;;;;;;;;;;;;;;2114935;28;20006;-44
2021/11/12 09:19:19;;;;;;;;;;;;;;;;;;2115334;28;19948;-44
2021/11/12 09:20:19;;;;;;;;;;;;;;;;;;2117860;27;19992;-43
2021/11/12 09:21:20;;;;;;;;;;;;;;;;;;2114845;28;19993;-44
2021/11/12 09:22:21;;;;;;;;;;;;;;;;;;2117499;27;19972;-45
2021/11/12 09:23:22;;;;;;;;;;;;;;;;;;2121939;28;19923;-44
2021/11/12 09:24:23;;;;;;;;;;;;;;;;;;2123218;28;19923;-43
2021/11/12 09:25:24;;;;;;;;;;;;;;;;;;2121089;28;19924;-44
2021/11/12 09:26:25;;;;;;;;;;;;;;;;;;2117016;28;20043;-44
2021/11/12 09:27:25;;;;;;;;;;;;;;;;;;2114869;28;20406;-44
2021/11/12 09:28:26;;;;;;;;;;;;;;;;;;2120134;27;20069;-44
2021/11/12 09:29:27;;;;;;;;;;;;;;;;;;2117039;27;19989;-45
2021/11/12 09:30:34;;;;;;;;;;;;;;;;;;2114823;28;19923;-44
2021/11/12 09:31:35;;;;;;;;;;;;;;;;;;2117715;27;19938;-44
2021/11/12 09:32:36;;;;;;;;;;;;;;;;;;2114369;28;19939;-44
2021/11/12 09:33:37;;;;;;;;;;;;;;;;;;2115179;28;19928;-44
2021/11/12 09:34:38;;;;;;;;;;;;;;;;;;2121159;27;19931;-45
2021/11/12 09:35:39;;;;;;;;;;;;;;;;;;2123208;28;20123;-44
2021/11/12 09:36:40;;;;;;;;;;;;;;;;;;2122265;28;19923;-44
2021/11/12 09:37:41;;;;;;;;;;;;;;;;;;2121824;27;20086;-43
2021/11/12 09:38:43;;;;;;;;;;;;;;;;;;2114790;28;19984;-44
2021/11/12 09:39:44;;;;;;;;;;;;;;;;;;2115715;28;19963;-48